createdAt,value
2022-10-25T00:01:17.556Z,13.90
2022-10-25T00:03:46.866Z,13.70
2022-10-25T00:06:15.272Z,13.70
2022-10-25T00:08:43.340Z,13.60
2022-10-25T00:11:17.287Z,13.40
2022-10-25T00:13:45.085Z,13.30
2022-10-25T00:16:15.255Z,13.30
2022-10-25T00:18:43.124Z,13.30
2022-10-25T00:21:12.341Z,13.20
2022-10-25T00:23:40.196Z,13.30
2022-10-25T00:26:10.774Z,13.10
2022-10-25T00:28:38.856Z,13.00
2022-10-25T00:31:08.427Z,13.00
2022-10-25T00:33:37.899Z,12.80
2022-10-25T00:36:06.875Z,12.80
2022-10-25T00:38:36.494Z,12.80
2022-10-25T00:41:05.641Z,12.80
2022-10-25T00:43:35.590Z,12.80
2022-10-25T00:46:06.301Z,12.80
2022-10-25T00:48:35.487Z,12.80
2022-10-25T00:51:04.524Z,13.00
2022-10-25T00:53:38.535Z,13.10
2022-10-25T00:56:13.641Z,13.10
2022-10-25T00:58:42.551Z,13.10
2022-10-25T01:01:10.862Z,13.00
2022-10-25T01:03:40.610Z,13.00
2022-10-25T01:06:16.034Z,13.20
2022-10-25T01:08:46.429Z,13.30
2022-10-25T01:11:14.369Z,13.20
2022-10-25T01:13:42.863Z,13.10
2022-10-25T01:16:20.607Z,13.10
2022-10-25T01:18:54.213Z,13.10
2022-10-25T01:21:46.376Z,13.10
2022-10-25T01:24:52.951Z,13.00
2022-10-25T01:27:53.671Z,13.00
2022-10-25T01:30:23.874Z,12.90
2022-10-25T01:33:04.546Z,12.90
2022-10-25T01:35:37.416Z,12.90
2022-10-25T01:38:25.789Z,12.90
2022-10-25T01:41:02.134Z,12.90
2022-10-25T01:43:38.897Z,12.90
2022-10-25T01:46:13.235Z,12.90
2022-10-25T01:48:46.757Z,12.80
2022-10-25T01:51:18.018Z,12.90
2022-10-25T01:53:47.344Z,12.90
2022-10-25T01:56:22.811Z,12.90
2022-10-25T01:59:09.880Z,12.80
2022-10-25T02:04:29.435Z,12.90
2022-10-25T02:07:03.124Z,13.00
2022-10-25T02:09:36.885Z,13.00
2022-10-25T02:12:08.249Z,13.00
2022-10-25T02:14:39.551Z,12.90
2022-10-25T02:17:13.500Z,13.00
2022-10-25T02:19:46.716Z,12.80
2022-10-25T02:22:15.477Z,12.90
2022-10-25T02:24:46.989Z,12.90
2022-10-25T02:27:15.387Z,12.90
2022-10-25T02:29:45.610Z,12.80
2022-10-25T02:32:13.643Z,12.80
2022-10-25T02:34:42.926Z,12.80
2022-10-25T02:37:11.112Z,12.80
2022-10-25T02:39:39.022Z,12.90
2022-10-25T02:42:07.108Z,12.90
2022-10-25T02:44:34.993Z,12.80
2022-10-25T02:47:02.787Z,12.80
2022-10-25T02:49:30.584Z,12.70
2022-10-25T02:51:59.712Z,12.70
2022-10-25T02:54:27.508Z,12.60
2022-10-25T02:56:55.311Z,12.60
2022-10-25T02:59:23.139Z,12.60
2022-10-25T03:01:50.982Z,12.70
2022-10-25T03:04:18.821Z,12.70
2022-10-25T03:06:46.675Z,12.60
2022-10-25T03:09:15.828Z,12.60
2022-10-25T03:11:43.655Z,12.60
2022-10-25T03:14:11.460Z,12.60
2022-10-25T03:16:39.309Z,12.60
2022-10-25T03:19:07.155Z,12.40
2022-10-25T03:21:37.558Z,12.40
2022-10-25T03:24:08.537Z,12.40
2022-10-25T03:26:37.731Z,12.30
2022-10-25T03:29:05.522Z,12.30
2022-10-25T03:31:33.326Z,12.30
2022-10-25T03:34:01.151Z,12.30
2022-10-25T03:36:29.011Z,12.30
2022-10-25T03:38:56.815Z,12.20
2022-10-25T03:41:24.624Z,12.20
2022-10-25T03:43:53.775Z,12.30
2022-10-25T03:46:21.586Z,12.30
2022-10-25T03:48:49.379Z,12.30
2022-10-25T03:51:17.186Z,12.30
2022-10-25T03:53:44.959Z,12.30
2022-10-25T03:56:12.797Z,12.40
2022-10-25T03:58:40.596Z,12.40
2022-10-25T04:01:11.184Z,12.40
2022-10-25T04:03:39.255Z,12.40
2022-10-25T04:06:07.518Z,12.30
2022-10-25T04:08:35.312Z,12.30
2022-10-25T04:11:03.117Z,12.30
2022-10-25T04:13:31.120Z,12.40
2022-10-25T04:15:58.927Z,12.40
2022-10-25T04:18:28.069Z,12.40
2022-10-25T04:20:55.904Z,12.30
2022-10-25T04:23:23.727Z,12.30
2022-10-25T04:25:56.347Z,12.30
2022-10-25T04:28:24.347Z,12.30
2022-10-25T04:30:52.160Z,12.30
2022-10-25T04:33:19.997Z,12.40
2022-10-25T04:35:56.326Z,12.30
2022-10-25T04:38:24.428Z,12.40
2022-10-25T04:40:56.865Z,12.40
2022-10-25T04:43:25.120Z,12.30
2022-10-25T04:45:53.640Z,12.30
2022-10-25T04:48:22.044Z,12.40
2022-10-25T04:50:49.867Z,12.30
2022-10-25T04:53:19.025Z,12.30
2022-10-25T04:55:57.069Z,12.30
2022-10-25T04:58:28.801Z,12.30
2022-10-25T05:01:01.390Z,12.30
2022-10-25T05:03:29.799Z,12.20
2022-10-25T05:06:06.577Z,12.10
2022-10-25T05:08:35.900Z,12.10
2022-10-25T05:11:03.700Z,12.10
2022-10-25T05:13:34.154Z,12.10
2022-10-25T05:16:02.038Z,12.10
2022-10-25T05:18:30.939Z,12.10
2022-10-25T05:21:00.106Z,12.10
2022-10-25T05:23:29.075Z,12.10
2022-10-25T05:26:06.074Z,12.00
2022-10-25T05:28:34.353Z,12.00
2022-10-25T05:31:04.908Z,12.00
2022-10-25T05:33:33.107Z,12.10
2022-10-25T05:36:01.435Z,11.90
2022-10-25T05:38:31.081Z,12.00
2022-10-25T05:41:01.780Z,12.10
2022-10-25T05:43:30.899Z,12.00
2022-10-25T05:46:05.189Z,12.10
2022-10-25T05:48:33.840Z,12.10
2022-10-25T05:51:33.523Z,12.10
2022-10-25T05:54:04.293Z,12.00
2022-10-25T05:56:33.492Z,12.10
2022-10-25T05:59:08.518Z,12.20
2022-10-25T06:01:37.287Z,12.20
2022-10-25T06:04:05.700Z,12.20
2022-10-25T06:06:33.562Z,12.20
2022-10-25T06:09:02.807Z,12.30
2022-10-25T06:11:31.324Z,12.30
2022-10-25T06:13:59.188Z,12.30
2022-10-25T06:16:28.456Z,12.30
2022-10-25T06:18:56.634Z,12.20
2022-10-25T06:21:26.147Z,12.20
2022-10-25T06:23:54.932Z,12.20
2022-10-25T06:26:25.336Z,12.10
2022-10-25T06:28:54.802Z,12.10
2022-10-25T06:31:23.110Z,12.10
2022-10-25T06:33:52.377Z,12.10
2022-10-25T06:36:21.375Z,12.10
2022-10-25T06:38:50.403Z,12.10
2022-10-25T06:41:19.890Z,12.10
2022-10-25T06:43:47.840Z,12.00
2022-10-25T06:46:21.608Z,12.00
2022-10-25T06:48:49.564Z,12.00
2022-10-25T06:51:19.216Z,12.00
2022-10-25T06:53:47.490Z,12.10
2022-10-25T06:56:16.292Z,12.10
2022-10-25T06:58:44.677Z,12.20
2022-10-25T07:01:14.255Z,12.20
2022-10-25T07:03:42.902Z,12.20
2022-10-25T07:06:12.404Z,12.20
2022-10-25T07:08:43.843Z,12.20
2022-10-25T07:11:15.766Z,12.30
2022-10-25T07:13:43.649Z,12.20
2022-10-25T07:16:13.963Z,12.40
2022-10-25T07:18:42.327Z,12.40
2022-10-25T07:21:13.039Z,12.40
2022-10-25T07:23:43.481Z,12.40
2022-10-25T07:26:12.999Z,12.50
2022-10-25T07:28:41.204Z,12.60
2022-10-25T07:31:09.315Z,12.70
2022-10-25T07:33:37.116Z,12.70
2022-10-25T07:36:09.785Z,12.70
2022-10-25T07:38:38.457Z,12.90
2022-10-25T07:41:08.391Z,13.00
2022-10-25T07:43:36.592Z,13.10
2022-10-25T07:46:05.365Z,13.10
2022-10-25T07:48:33.632Z,13.10
2022-10-25T07:51:04.628Z,13.10
2022-10-25T07:53:32.650Z,13.10
2022-10-25T07:56:00.651Z,13.10
2022-10-25T07:58:29.992Z,13.10
2022-10-25T08:01:02.482Z,13.10
2022-10-25T08:03:30.733Z,13.10
2022-10-25T08:05:58.991Z,13.20
2022-10-25T08:08:27.744Z,13.30
2022-10-25T08:10:56.013Z,13.40
2022-10-25T08:13:25.313Z,13.40
2022-10-25T08:15:55.806Z,13.50
2022-10-25T08:18:24.331Z,13.60
2022-10-25T08:21:08.003Z,13.80
2022-10-25T08:23:35.873Z,14.00
2022-10-25T08:26:04.263Z,14.40
2022-10-25T08:28:32.179Z,14.60
2022-10-25T08:31:01.932Z,14.70
2022-10-25T08:33:30.323Z,14.80
2022-10-25T08:36:01.344Z,15.00
2022-10-25T08:38:29.253Z,15.10
2022-10-25T08:41:04.118Z,15.30
2022-10-25T08:46:39.367Z,15.70
2022-10-25T08:49:17.485Z,15.90
2022-10-25T08:51:48.319Z,16.10
2022-10-25T08:54:24.919Z,16.40
2022-10-25T08:57:14.064Z,16.60
2022-10-25T08:59:46.288Z,16.80
2022-10-25T09:02:23.732Z,17.10
2022-10-25T09:04:51.709Z,17.50
2022-10-25T09:07:42.020Z,17.80
2022-10-25T09:10:21.716Z,18.40
2022-10-25T09:12:57.213Z,19.10
2022-10-25T09:15:40.465Z,19.60
2022-10-25T09:18:19.300Z,19.70
2022-10-25T09:20:51.592Z,20.10
2022-10-25T09:23:29.658Z,20.40
2022-10-25T09:26:04.898Z,20.50
2022-10-25T09:28:49.377Z,20.50
2022-10-25T09:31:20.820Z,20.80
2022-10-25T09:33:52.561Z,21.10
2022-10-25T09:36:20.683Z,21.20
2022-10-25T09:38:53.746Z,21.10
2022-10-25T09:41:26.261Z,21.40
2022-10-25T09:43:58.549Z,21.40
2022-10-25T09:46:34.140Z,21.30
2022-10-25T09:49:08.552Z,21.30
2022-10-25T09:51:44.359Z,21.60
2022-10-25T09:54:18.126Z,21.60
2022-10-25T09:56:46.133Z,21.60
2022-10-25T09:59:15.406Z,21.80
2022-10-25T10:01:44.072Z,21.80
2022-10-25T10:04:26.663Z,21.70
2022-10-25T10:07:03.296Z,22.00
2022-10-25T10:09:33.057Z,22.20
2022-10-25T10:12:05.401Z,22.30
2022-10-25T10:14:39.328Z,22.50
2022-10-25T10:17:12.007Z,22.50
2022-10-25T10:19:41.412Z,22.80
2022-10-25T10:22:13.182Z,23.00
2022-10-25T10:24:42.503Z,23.20
2022-10-25T10:27:13.129Z,23.40
2022-10-25T10:29:56.777Z,23.50
2022-10-25T10:32:27.764Z,23.60
2022-10-25T10:34:58.922Z,23.90
2022-10-25T10:37:28.005Z,24.10
2022-10-25T10:39:58.066Z,24.30
2022-10-25T10:42:34.853Z,24.40
2022-10-25T10:45:16.394Z,24.70
2022-10-25T10:47:46.980Z,24.60
2022-10-25T10:50:26.016Z,24.80
2022-10-25T10:53:00.251Z,24.90
2022-10-25T10:55:31.333Z,24.80
2022-10-25T10:58:03.764Z,25.10
2022-10-25T11:00:33.880Z,25.30
2022-10-25T11:03:02.043Z,25.40
2022-10-25T11:05:34.810Z,26.00
2022-10-25T11:08:13.184Z,25.90
2022-10-25T11:10:41.049Z,26.00
2022-10-25T11:13:15.039Z,26.20
2022-10-25T11:16:01.269Z,26.20
2022-10-25T11:18:40.508Z,26.40
2022-10-25T11:21:17.818Z,26.70
2022-10-25T11:23:57.663Z,26.50
2022-10-25T11:26:37.316Z,26.10
2022-10-25T11:29:13.203Z,25.60
2022-10-25T11:31:54.719Z,25.30
2022-10-25T11:34:30.765Z,25.10
2022-10-25T11:37:16.376Z,24.80
2022-10-25T11:39:54.456Z,24.60
2022-10-25T11:42:51.724Z,24.40
2022-10-25T11:45:25.785Z,24.30
2022-10-25T11:48:17.003Z,24.20
2022-10-25T11:50:52.381Z,24.00
2022-10-25T11:53:37.705Z,23.90
2022-10-25T11:56:16.307Z,23.80
2022-10-25T11:58:53.236Z,23.60
2022-10-25T12:01:34.036Z,23.40
2022-10-25T12:04:28.445Z,23.30
2022-10-25T12:07:05.366Z,23.30
2022-10-25T12:09:43.612Z,23.20
2022-10-25T12:12:13.594Z,23.00
2022-10-25T12:14:45.590Z,23.00
2022-10-25T12:17:20.292Z,23.00
2022-10-25T12:19:51.075Z,22.80
2022-10-25T12:22:24.895Z,22.70
2022-10-25T12:24:59.154Z,22.40
2022-10-25T12:27:29.441Z,22.20
2022-10-25T12:30:01.408Z,22.10
2022-10-25T12:32:37.002Z,22.00
2022-10-25T12:35:14.979Z,21.90
2022-10-25T12:37:49.102Z,21.90
2022-10-25T12:40:26.191Z,21.80
2022-10-25T12:42:58.420Z,21.60
2022-10-25T12:45:56.028Z,21.50
2022-10-25T12:48:59.981Z,21.50
2022-10-25T12:51:53.468Z,21.50
2022-10-25T12:54:39.488Z,21.40
2022-10-25T12:57:19.986Z,21.20
2022-10-25T13:00:02.473Z,21.20
2022-10-25T13:03:16.993Z,21.10
2022-10-25T13:06:08.639Z,21.00
2022-10-25T13:08:40.346Z,20.80
2022-10-25T13:11:10.390Z,20.70
2022-10-25T13:13:41.342Z,20.70
2022-10-25T13:16:11.413Z,20.60
2022-10-25T13:18:43.058Z,20.50
2022-10-25T13:21:12.715Z,20.50
2022-10-25T13:24:00.930Z,20.50
2022-10-25T13:26:51.069Z,20.40
2022-10-25T13:29:49.529Z,20.30
2022-10-25T13:32:19.825Z,20.20
2022-10-25T13:34:48.075Z,20.30
2022-10-25T13:37:39.774Z,20.20
2022-10-25T13:43:00.854Z,20.10
2022-10-25T13:45:36.606Z,20.00
2022-10-25T13:48:30.325Z,20.00
2022-10-25T13:51:00.512Z,20.30
2022-10-25T13:53:37.656Z,20.40
2022-10-25T13:56:08.990Z,20.20
2022-10-25T13:58:44.816Z,20.10
2022-10-25T14:01:57.929Z,20.00
2022-10-25T14:04:42.092Z,20.10
2022-10-25T14:07:50.668Z,20.00
2022-10-25T14:10:23.977Z,19.80
2022-10-25T14:12:55.595Z,19.70
2022-10-25T14:15:31.936Z,19.70
2022-10-25T14:18:00.440Z,19.50
2022-10-25T14:20:31.394Z,19.50
2022-10-25T14:23:02.793Z,19.40
2022-10-25T14:25:35.176Z,19.60
2022-10-25T14:28:15.052Z,19.60
2022-10-25T14:30:44.792Z,19.50
2022-10-25T14:33:23.803Z,19.50
2022-10-25T14:35:55.752Z,19.40
2022-10-25T14:38:26.207Z,19.40
2022-10-25T14:40:56.628Z,19.40
2022-10-25T14:43:27.878Z,19.30
2022-10-25T14:46:01.269Z,19.00
2022-10-25T14:48:29.816Z,18.90
2022-10-25T14:51:04.065Z,18.70
2022-10-25T14:53:32.258Z,18.60
2022-10-25T14:56:03.136Z,18.50
2022-10-25T14:58:44.011Z,18.30
2022-10-25T15:01:13.194Z,18.20
2022-10-25T15:03:44.312Z,18.10
2022-10-25T15:06:15.329Z,18.00
2022-10-25T15:08:50.687Z,17.90
2022-10-25T15:11:21.168Z,17.70
2022-10-25T15:13:50.637Z,17.60
2022-10-25T15:16:31.352Z,17.50
2022-10-25T15:19:08.396Z,17.60
2022-10-25T15:21:43.313Z,17.80
2022-10-25T15:24:18.341Z,17.80
2022-10-25T15:26:57.658Z,17.90
2022-10-25T15:29:52.716Z,17.90
2022-10-25T15:32:22.589Z,17.90
2022-10-25T15:34:52.124Z,17.70
2022-10-25T15:37:23.104Z,17.60
2022-10-25T15:39:52.568Z,17.50
2022-10-25T15:42:21.765Z,17.40
2022-10-25T15:44:49.607Z,17.40
2022-10-25T15:47:34.098Z,17.40
2022-10-25T15:50:05.036Z,17.50
2022-10-25T15:52:34.234Z,17.40
2022-10-25T15:55:02.127Z,17.30
2022-10-25T15:57:29.956Z,17.10
2022-10-25T15:59:57.889Z,17.10
2022-10-25T16:02:28.693Z,16.90
2022-10-25T16:04:56.644Z,16.80
2022-10-25T16:07:24.707Z,16.70
2022-10-25T16:09:53.905Z,16.70
2022-10-25T16:12:26.422Z,16.50
2022-10-25T16:14:54.613Z,16.40
2022-10-25T16:17:22.468Z,16.30
2022-10-25T16:19:50.294Z,16.20
2022-10-25T16:22:18.158Z,16.10
2022-10-25T16:24:45.991Z,16.20
2022-10-25T16:27:15.671Z,16.10
2022-10-25T16:29:44.022Z,16.10
2022-10-25T16:32:11.826Z,16.10
2022-10-25T16:34:42.388Z,16.00
2022-10-25T16:37:11.915Z,15.90
2022-10-25T16:39:40.141Z,15.80
2022-10-25T16:42:31.102Z,15.80
2022-10-25T16:45:00.421Z,15.70
2022-10-25T16:47:28.701Z,15.60
2022-10-25T16:49:56.570Z,15.50
2022-10-25T16:52:24.396Z,15.60
2022-10-25T16:54:52.222Z,15.60
2022-10-25T16:57:20.040Z,15.50
2022-10-25T16:59:50.541Z,15.40
2022-10-25T17:02:21.070Z,15.30
2022-10-25T17:04:50.190Z,15.30
2022-10-25T17:07:18.208Z,15.20
2022-10-25T17:09:46.247Z,15.10
2022-10-25T17:12:14.099Z,15.00
2022-10-25T17:14:42.171Z,15.10
2022-10-25T17:17:11.488Z,15.10
2022-10-25T17:19:39.343Z,15.10
2022-10-25T17:22:07.243Z,14.90
2022-10-25T17:24:37.500Z,14.80
2022-10-25T17:29:33.763Z,14.70
2022-10-25T17:32:01.574Z,14.60
2022-10-25T17:34:32.111Z,14.60
2022-10-25T17:37:01.998Z,14.70
2022-10-25T17:39:29.986Z,14.70
2022-10-25T17:41:57.792Z,14.70
2022-10-25T17:44:25.606Z,14.70
2022-10-25T17:46:53.421Z,14.60
2022-10-25T17:49:21.331Z,14.60
2022-10-25T17:51:50.512Z,14.60
2022-10-25T17:54:19.132Z,14.60
2022-10-25T17:56:46.989Z,14.70
2022-10-25T17:59:14.843Z,14.60
2022-10-25T18:01:43.009Z,14.40
2022-10-25T18:04:10.906Z,14.30
2022-10-25T18:06:39.017Z,14.20
2022-10-25T18:09:08.258Z,14.10
2022-10-25T18:11:36.508Z,14.00
2022-10-25T18:14:05.071Z,14.00
2022-10-25T18:16:33.485Z,14.00
2022-10-25T18:19:03.045Z,13.90
2022-10-25T18:21:31.806Z,13.90
2022-10-25T18:24:01.613Z,13.80
2022-10-25T18:26:30.841Z,13.80
2022-10-25T18:28:59.517Z,13.90
2022-10-25T18:31:28.329Z,13.80
2022-10-25T18:33:58.834Z,13.70
2022-10-25T18:36:27.514Z,13.70
2022-10-25T18:38:55.780Z,13.70
2022-10-25T18:41:25.534Z,13.80
2022-10-25T18:43:55.738Z,13.80
2022-10-25T18:46:24.481Z,13.70
2022-10-25T18:48:52.718Z,13.70
2022-10-25T18:51:22.271Z,13.70
2022-10-25T18:53:53.741Z,13.70
2022-10-25T18:56:22.274Z,13.60
2022-10-25T18:58:50.458Z,13.70
2022-10-25T19:01:22.573Z,13.60
2022-10-25T19:03:51.052Z,13.50
2022-10-25T19:06:19.463Z,13.50
2022-10-25T19:08:49.108Z,13.60
2022-10-25T19:11:17.339Z,13.60
2022-10-25T19:13:48.865Z,13.70
2022-10-25T19:16:20.451Z,13.70
2022-10-25T19:18:48.391Z,13.70
2022-10-25T19:21:18.282Z,13.70
2022-10-25T19:23:47.707Z,13.70
2022-10-25T19:26:17.500Z,13.70
2022-10-25T19:28:46.634Z,13.70
2022-10-25T19:31:17.144Z,13.90
2022-10-25T19:33:48.146Z,13.90
2022-10-25T19:36:17.115Z,13.90
2022-10-25T19:38:46.024Z,13.80
2022-10-25T19:41:16.822Z,13.90
2022-10-25T19:43:44.896Z,13.90
2022-10-25T19:46:14.009Z,13.80
2022-10-25T19:48:42.191Z,13.90
2022-10-25T19:51:13.267Z,13.90
2022-10-25T19:53:41.899Z,13.80
2022-10-25T19:56:12.513Z,13.90
2022-10-25T19:58:40.975Z,13.90
2022-10-25T20:01:11.405Z,13.90
2022-10-25T20:03:40.633Z,13.80
2022-10-25T20:06:11.960Z,13.90
2022-10-25T20:08:41.111Z,13.80
2022-10-25T20:11:11.026Z,13.80
2022-10-25T20:13:39.139Z,13.70
2022-10-25T20:16:08.206Z,13.70
2022-10-25T20:18:37.695Z,13.70
2022-10-25T20:21:07.788Z,13.70
2022-10-25T20:23:37.306Z,13.70
2022-10-25T20:26:13.320Z,13.70
2022-10-25T20:28:41.406Z,13.80
2022-10-25T20:31:09.262Z,13.80
2022-10-25T20:33:37.321Z,13.80
2022-10-25T20:36:07.622Z,13.90
2022-10-25T20:38:37.715Z,13.90
2022-10-25T20:41:06.312Z,13.90
2022-10-25T20:43:34.511Z,13.90
2022-10-25T20:46:02.438Z,13.80
2022-10-25T20:48:30.831Z,13.80
2022-10-25T20:50:58.694Z,13.80
2022-10-25T20:53:26.537Z,13.80
2022-10-25T20:55:56.173Z,13.90
2022-10-25T20:58:24.627Z,14.00
2022-10-25T21:00:55.062Z,13.90
2022-10-25T21:03:23.384Z,13.90
2022-10-25T21:05:54.624Z,14.00
2022-10-25T21:08:23.860Z,13.90
2022-10-25T21:10:57.802Z,13.90
2022-10-25T21:13:27.050Z,13.90
2022-10-25T21:15:54.913Z,13.90
2022-10-25T21:18:27.053Z,13.90
2022-10-25T21:20:55.368Z,13.90
2022-10-25T21:23:23.236Z,13.70
2022-10-25T21:25:59.932Z,13.60
2022-10-25T21:28:31.721Z,13.50
2022-10-25T21:31:01.743Z,13.30
2022-10-25T21:33:30.050Z,13.30
2022-10-25T21:36:03.243Z,13.40
2022-10-25T21:38:31.076Z,13.30
2022-10-25T21:41:08.929Z,13.10
2022-10-25T21:43:36.929Z,13.10
2022-10-25T21:46:08.029Z,13.10
2022-10-25T21:48:36.258Z,13.00
2022-10-25T21:51:04.420Z,13.00
2022-10-25T21:53:32.288Z,13.10
2022-10-25T21:56:12.369Z,13.00
2022-10-25T21:58:41.080Z,13.00
2022-10-25T22:01:11.010Z,12.90
2022-10-25T22:03:38.992Z,13.00
2022-10-25T22:06:07.417Z,13.10
2022-10-25T22:08:35.607Z,13.10
2022-10-25T22:11:07.343Z,13.00
2022-10-25T22:13:36.652Z,13.00
2022-10-25T22:16:06.698Z,13.00
2022-10-25T22:18:34.936Z,13.00
2022-10-25T22:21:05.638Z,13.10
2022-10-25T22:23:34.804Z,13.00
2022-10-25T22:26:03.737Z,12.90
2022-10-25T22:28:34.228Z,12.90
2022-10-25T22:31:07.918Z,12.90
2022-10-25T22:33:36.428Z,12.80
2022-10-25T22:38:38.171Z,12.90
2022-10-25T22:41:08.157Z,12.90
2022-10-25T22:43:37.194Z,12.90
2022-10-25T22:46:08.673Z,12.90
2022-10-25T22:48:38.586Z,12.80
2022-10-25T22:51:07.497Z,12.80
2022-10-25T22:53:35.998Z,12.90
2022-10-25T22:56:06.151Z,12.90
2022-10-25T22:58:35.338Z,12.80
2022-10-25T23:01:06.561Z,12.90
2022-10-25T23:03:35.230Z,12.90
2022-10-25T23:06:04.391Z,13.00
2022-10-25T23:08:32.783Z,13.00
2022-10-25T23:11:01.904Z,13.00
2022-10-25T23:13:30.213Z,13.00
2022-10-25T23:15:58.070Z,13.00
2022-10-25T23:18:27.584Z,13.10
2022-10-25T23:20:56.773Z,13.20
2022-10-25T23:23:25.823Z,13.20
2022-10-25T23:25:54.384Z,13.20
2022-10-25T23:28:22.569Z,13.20
2022-10-25T23:30:50.387Z,13.20
2022-10-25T23:33:18.188Z,13.30
2022-10-25T23:35:47.351Z,13.30
2022-10-25T23:38:15.328Z,13.40
2022-10-25T23:40:47.647Z,13.40
2022-10-25T23:43:15.761Z,13.40
2022-10-25T23:45:43.660Z,13.40
2022-10-25T23:48:11.491Z,13.40
2022-10-25T23:50:39.349Z,13.30
2022-10-25T23:53:09.358Z,13.30
2022-10-25T23:55:38.591Z,13.30
2022-10-25T23:58:06.469Z,13.30
